createdAt,value
2023-02-27T00:00:21.248Z,102067.50
2023-02-27T00:02:53.399Z,102065.16
2023-02-27T00:05:23.664Z,102058.88
2023-02-27T00:07:53.716Z,102055.31
2023-02-27T00:10:23.768Z,102059.09
2023-02-27T00:12:53.902Z,102060.09
2023-02-27T00:15:24.003Z,102056.72
2023-02-27T00:17:54.023Z,102059.44
2023-02-27T00:20:24.439Z,102064.03
2023-02-27T00:22:54.761Z,102060.03
2023-02-27T00:25:24.914Z,102062.31
2023-02-27T00:27:56.954Z,102069.63
2023-02-27T00:30:27.710Z,102056.00
2023-02-27T00:32:57.852Z,102064.94
2023-02-27T00:35:28.191Z,102060.34
2023-02-27T00:37:58.243Z,102058.03
2023-02-27T00:40:28.473Z,102059.91
2023-02-27T00:42:58.703Z,102062.59
2023-02-27T00:45:27.064Z,102060.03
2023-02-27T00:47:55.522Z,102062.94
2023-02-27T00:50:24.198Z,102061.47
2023-02-27T00:52:52.248Z,102054.97
2023-02-27T00:55:20.669Z,102062.88
2023-02-27T00:57:49.160Z,102061.16
2023-02-27T01:00:18.323Z,102062.41
2023-02-27T01:02:45.945Z,102060.09
2023-02-27T01:05:15.542Z,102058.19
2023-02-27T01:07:42.884Z,102053.72
2023-02-27T01:10:13.131Z,102054.34
2023-02-27T01:12:42.807Z,102049.28
2023-02-27T01:15:12.904Z,102052.22
2023-02-27T01:17:43.547Z,102050.28
2023-02-27T01:20:16.411Z,102046.47
2023-02-27T01:22:46.441Z,102044.56
2023-02-27T01:25:16.642Z,102040.75
2023-02-27T01:27:46.713Z,102042.81
2023-02-27T01:30:17.250Z,102044.06
2023-02-27T01:32:47.553Z,102049.69
2023-02-27T01:35:18.086Z,102046.53
2023-02-27T01:37:48.134Z,102032.50
2023-02-27T01:40:18.533Z,102040.00
2023-02-27T01:42:48.520Z,102040.41
2023-02-27T01:45:43.007Z,102036.22
2023-02-27T01:48:28.920Z,102045.78
2023-02-27T01:51:08.824Z,102048.66
2023-02-27T01:53:45.100Z,102046.78
2023-02-27T01:56:22.173Z,102038.47
2023-02-27T01:59:07.803Z,102038.72
2023-02-27T02:01:39.175Z,102043.75
2023-02-27T02:04:30.037Z,102039.75
2023-02-27T02:07:19.241Z,102046.72
2023-02-27T02:09:54.726Z,102040.47
2023-02-27T02:12:36.102Z,102037.47
2023-02-27T02:15:07.694Z,102035.56
2023-02-27T02:17:51.912Z,102050.75
2023-02-27T02:20:45.653Z,102050.28
2023-02-27T02:24:08.548Z,102051.38
2023-02-27T02:27:02.244Z,102051.84
2023-02-27T02:30:18.352Z,102044.34
2023-02-27T02:33:09.381Z,102048.41
2023-02-27T02:36:39.788Z,102052.47
2023-02-27T02:39:54.985Z,102046.56
2023-02-27T02:42:53.283Z,102050.03
2023-02-27T02:45:54.144Z,102051.44
2023-02-27T02:48:47.608Z,102053.69
2023-02-27T02:51:50.995Z,102062.22
2023-02-27T02:55:13.455Z,102062.59
2023-02-27T02:58:29.003Z,102061.94
2023-02-27T03:01:28.498Z,102062.78
2023-02-27T03:04:43.222Z,102067.34
2023-02-27T03:07:38.776Z,102062.13
2023-02-27T03:10:33.303Z,102065.47
2023-02-27T03:13:19.303Z,102072.59
2023-02-27T03:16:28.266Z,102065.28
2023-02-27T03:19:34.416Z,102071.38
2023-02-27T03:22:18.842Z,102068.66
2023-02-27T03:24:57.391Z,102075.56
2023-02-27T03:27:38.595Z,102089.75
2023-02-27T03:30:38.286Z,102088.75
2023-02-27T03:33:39.014Z,102091.44
2023-02-27T03:36:22.994Z,102088.91
2023-02-27T03:39:45.555Z,102089.09
2023-02-27T03:42:40.223Z,102090.50
2023-02-27T03:45:30.778Z,102088.38
2023-02-27T03:48:00.442Z,102090.06
2023-02-27T03:50:29.844Z,102094.63
2023-02-27T03:53:00.120Z,102097.09
2023-02-27T03:55:41.220Z,102101.84
2023-02-27T03:58:09.573Z,102105.78
2023-02-27T04:00:39.429Z,102098.88
2023-02-27T04:03:09.859Z,102109.91
2023-02-27T04:05:37.590Z,102097.38
2023-02-27T04:08:55.458Z,102112.59
2023-02-27T04:12:13.000Z,102109.06
2023-02-27T04:15:01.424Z,102113.25
2023-02-27T04:18:13.247Z,102114.91
2023-02-27T04:20:58.247Z,102121.19
2023-02-27T04:24:11.844Z,102118.28
2023-02-27T04:27:05.650Z,102123.13
2023-02-27T04:30:02.087Z,102125.16
2023-02-27T04:33:24.746Z,102131.22
2023-02-27T04:36:18.655Z,102130.03
2023-02-27T04:39:10.340Z,102133.56
2023-02-27T04:42:16.268Z,102128.81
2023-02-27T04:44:52.071Z,102138.50
2023-02-27T04:47:33.411Z,102135.13
2023-02-27T04:50:46.609Z,102144.13
2023-02-27T04:53:44.214Z,102137.00
2023-02-27T04:56:28.723Z,102146.38
2023-02-27T04:59:22.478Z,102138.41
2023-02-27T05:02:13.393Z,102137.13
2023-02-27T05:04:49.001Z,102133.94
2023-02-27T05:07:32.841Z,102137.88
2023-02-27T05:10:37.176Z,102140.22
2023-02-27T05:13:26.279Z,102133.84
2023-02-27T05:16:09.412Z,102139.81
2023-02-27T05:18:39.710Z,102141.34
2023-02-27T05:21:56.356Z,102132.47
2023-02-27T05:25:15.998Z,102139.88
2023-02-27T05:28:02.070Z,102138.75
2023-02-27T05:30:53.577Z,102138.31
2023-02-27T05:33:57.095Z,102137.66
2023-02-27T05:37:18.569Z,102144.28
2023-02-27T05:39:53.395Z,102148.19
2023-02-27T05:43:15.264Z,102147.53
2023-02-27T05:45:52.843Z,102154.16
2023-02-27T05:48:38.559Z,102162.75
2023-02-27T05:51:15.406Z,102159.97
2023-02-27T05:54:01.541Z,102161.63
2023-02-27T05:56:37.363Z,102159.50
2023-02-27T05:59:23.832Z,102159.88
2023-02-27T06:01:54.432Z,102172.09
2023-02-27T06:04:24.713Z,102166.97
2023-02-27T06:06:55.144Z,102173.94
2023-02-27T06:09:25.161Z,102172.38
2023-02-27T06:11:55.197Z,102172.47
2023-02-27T06:14:25.566Z,102177.53
2023-02-27T06:16:55.656Z,102190.84
2023-02-27T06:19:25.945Z,102192.56
2023-02-27T06:21:55.980Z,102194.03
2023-02-27T06:24:26.796Z,102197.03
2023-02-27T06:26:56.883Z,102195.25
2023-02-27T06:29:26.924Z,102204.50
2023-02-27T06:31:57.046Z,102201.66
2023-02-27T06:34:27.274Z,102201.84
2023-02-27T06:36:57.441Z,102204.88
2023-02-27T06:39:28.690Z,102199.75
2023-02-27T06:41:58.764Z,102201.19
2023-02-27T06:44:29.519Z,102185.81
2023-02-27T06:46:59.526Z,102186.03
2023-02-27T06:49:29.577Z,102188.72
2023-02-27T06:51:59.604Z,102190.03
2023-02-27T06:54:29.637Z,102193.63
2023-02-27T06:57:00.418Z,102203.31
2023-02-27T06:59:30.413Z,102205.53
2023-02-27T07:02:00.695Z,102210.19
2023-02-27T07:04:30.737Z,102216.50
2023-02-27T07:07:34.673Z,102227.41
2023-02-27T07:09:50.736Z,102245.63
2023-02-27T07:12:21.061Z,102246.09
2023-02-27T07:14:51.146Z,102236.94
2023-02-27T07:17:22.521Z,102249.56
2023-02-27T07:19:52.576Z,102259.81
2023-02-27T07:22:21.185Z,102262.22
2023-02-27T07:24:49.589Z,102273.97
2023-02-27T07:27:18.077Z,102256.88
2023-02-27T07:29:46.681Z,102254.41
2023-02-27T07:32:15.604Z,102257.81
2023-02-27T07:34:45.754Z,102254.03
2023-02-27T07:37:15.840Z,102258.03
2023-02-27T07:39:45.914Z,102258.50
2023-02-27T07:42:19.598Z,102256.84
2023-02-27T07:44:49.611Z,102262.34
2023-02-27T07:47:19.642Z,102253.56
2023-02-27T07:49:49.664Z,102269.28
2023-02-27T07:52:19.679Z,102271.19
2023-02-27T07:54:49.750Z,102267.44
2023-02-27T07:57:19.881Z,102271.06
2023-02-27T07:59:49.930Z,102270.91
2023-02-27T08:02:20.008Z,102272.00
2023-02-27T08:04:50.165Z,102277.06
2023-02-27T08:07:20.202Z,102283.38
2023-02-27T08:09:50.276Z,102283.41
2023-02-27T08:12:20.665Z,102286.13
2023-02-27T08:14:50.678Z,102289.94
2023-02-27T08:17:20.705Z,102286.38
2023-02-27T08:19:50.730Z,102292.88
2023-02-27T08:22:20.836Z,102294.75
2023-02-27T08:24:51.057Z,102289.97
2023-02-27T08:27:21.112Z,102296.69
2023-02-27T08:29:51.134Z,102297.53
2023-02-27T08:32:24.192Z,102293.56
2023-02-27T08:34:54.650Z,102289.09
2023-02-27T08:37:24.845Z,102286.34
2023-02-27T08:39:54.873Z,102290.91
2023-02-27T08:42:24.942Z,102286.44
2023-02-27T08:44:54.670Z,102287.47
2023-02-27T08:47:23.365Z,102292.00
2023-02-27T08:49:51.568Z,102293.53
2023-02-27T08:52:19.926Z,102287.63
2023-02-27T08:54:48.489Z,102293.84
2023-02-27T08:57:16.760Z,102304.63
2023-02-27T08:59:45.215Z,102298.53
2023-02-27T09:02:16.434Z,102305.66
2023-02-27T09:04:46.505Z,102297.47
2023-02-27T09:07:16.570Z,102290.09
2023-02-27T09:09:48.050Z,102295.75
2023-02-27T09:12:20.032Z,102303.94
2023-02-27T09:14:50.052Z,102306.09
2023-02-27T09:17:20.108Z,102301.53
2023-02-27T09:19:51.385Z,102304.84
2023-02-27T09:22:21.501Z,102307.56
2023-02-27T09:24:51.502Z,102316.56
2023-02-27T09:27:21.740Z,102315.63
2023-02-27T09:29:56.408Z,102318.53
2023-02-27T09:32:28.239Z,102323.63
2023-02-27T09:34:58.905Z,102327.84
2023-02-27T09:37:28.978Z,102321.81
2023-02-27T09:39:59.026Z,102324.28
2023-02-27T09:42:45.524Z,102325.59
2023-02-27T09:45:28.271Z,102327.91
2023-02-27T09:48:31.862Z,102329.69
2023-02-27T09:51:03.668Z,102331.13
2023-02-27T09:53:49.785Z,102335.53
2023-02-27T09:56:56.928Z,102340.25
2023-02-27T10:00:45.800Z,102340.75
2023-02-27T10:04:06.147Z,102346.00
2023-02-27T10:06:48.507Z,102338.00
2023-02-27T10:09:38.060Z,102341.78
2023-02-27T10:12:55.047Z,102348.00
2023-02-27T10:15:38.092Z,102349.34
2023-02-27T10:18:54.930Z,102340.88
2023-02-27T10:21:45.537Z,102349.38
2023-02-27T10:24:37.014Z,102349.63
2023-02-27T10:27:19.841Z,102357.97
2023-02-27T10:29:53.278Z,102355.13
2023-02-27T10:32:33.332Z,102362.28
2023-02-27T10:35:33.955Z,102360.59
2023-02-27T10:38:15.042Z,102352.94
2023-02-27T10:40:48.147Z,102352.75
2023-02-27T10:43:19.321Z,102361.09
2023-02-27T10:45:49.693Z,102353.84
2023-02-27T10:48:22.639Z,102358.47
2023-02-27T10:50:52.814Z,102363.72
2023-02-27T10:53:28.537Z,102351.00
2023-02-27T10:56:22.708Z,102358.38
2023-02-27T10:59:17.567Z,102354.97
2023-02-27T11:02:01.130Z,102351.84
2023-02-27T11:04:39.132Z,102362.59
2023-02-27T11:07:21.249Z,102357.19
2023-02-27T11:10:03.230Z,102350.13
2023-02-27T11:12:35.704Z,102347.22
2023-02-27T11:15:17.521Z,102349.75
2023-02-27T11:17:47.743Z,102351.88
2023-02-27T11:20:43.430Z,102348.63
2023-02-27T11:23:25.652Z,102350.94
2023-02-27T11:26:19.064Z,102353.59
2023-02-27T11:29:19.038Z,102352.56
2023-02-27T11:31:48.964Z,102351.56
2023-02-27T11:34:26.412Z,102349.44
2023-02-27T11:37:18.326Z,102346.84
2023-02-27T11:40:10.802Z,102348.63
2023-02-27T11:42:55.086Z,102354.50
2023-02-27T11:46:18.069Z,102347.94
2023-02-27T11:48:46.413Z,102341.72
2023-02-27T11:52:06.300Z,102346.66
2023-02-27T11:55:01.711Z,102336.84
2023-02-27T11:57:40.407Z,102340.78
2023-02-27T12:00:31.139Z,102337.22
2023-02-27T12:03:48.623Z,102334.69
2023-02-27T12:06:40.339Z,102333.28
2023-02-27T12:09:44.414Z,102334.13
2023-02-27T12:12:37.442Z,102332.16
2023-02-27T12:15:24.857Z,102325.09
2023-02-27T12:18:20.132Z,102329.09
2023-02-27T12:21:10.288Z,102336.59
2023-02-27T12:24:34.751Z,102332.31
2023-02-27T12:27:43.784Z,102333.66
2023-02-27T12:30:23.181Z,102332.97
2023-02-27T12:33:14.844Z,102337.91
2023-02-27T12:36:02.898Z,102340.44
2023-02-27T12:38:33.186Z,102337.69
2023-02-27T12:41:42.372Z,102338.28
2023-02-27T12:44:24.444Z,102342.34
2023-02-27T12:47:20.820Z,102332.06
2023-02-27T12:50:18.289Z,102340.16
2023-02-27T12:53:27.106Z,102332.22
2023-02-27T12:56:19.646Z,102341.66
2023-02-27T12:59:53.764Z,102335.06
2023-02-27T13:03:01.886Z,102338.22
2023-02-27T13:05:52.878Z,102331.31
2023-02-27T13:09:02.482Z,102338.84
2023-02-27T13:12:13.279Z,102337.03
2023-02-27T13:15:06.328Z,102341.66
2023-02-27T13:17:54.646Z,102339.78
2023-02-27T13:20:22.556Z,102340.28
2023-02-27T13:23:25.101Z,102342.22
2023-02-27T13:26:01.307Z,102343.16
2023-02-27T13:28:32.445Z,102342.69
2023-02-27T13:31:34.346Z,102341.38
2023-02-27T13:34:46.854Z,102339.72
2023-02-27T13:37:17.057Z,102334.09
2023-02-27T13:39:47.142Z,102339.00
2023-02-27T13:42:26.336Z,102337.59
2023-02-27T13:45:54.303Z,102344.56
2023-02-27T13:48:42.596Z,102330.59
2023-02-27T13:51:47.839Z,102336.88
2023-02-27T13:54:36.388Z,102338.53
2023-02-27T13:57:21.493Z,102331.81
2023-02-27T14:00:09.436Z,102337.13
2023-02-27T14:02:59.244Z,102335.28
2023-02-27T14:05:46.357Z,102332.72
2023-02-27T14:08:31.644Z,102339.31
2023-02-27T14:11:34.412Z,102331.41
2023-02-27T14:14:30.123Z,102339.53
2023-02-27T14:17:03.726Z,102333.91
2023-02-27T14:19:47.955Z,102341.28
2023-02-27T14:22:18.397Z,102349.56
2023-02-27T14:25:06.482Z,102350.84
2023-02-27T14:27:43.804Z,102347.94
2023-02-27T14:30:40.877Z,102349.63
2023-02-27T14:33:55.903Z,102355.81
2023-02-27T14:36:34.727Z,102355.09
2023-02-27T14:39:05.072Z,102351.19
2023-02-27T14:42:26.179Z,102361.91
2023-02-27T14:44:56.690Z,102361.75
2023-02-27T14:47:36.873Z,102361.75
2023-02-27T14:50:38.856Z,102359.16
2023-02-27T14:53:27.120Z,102361.78
2023-02-27T14:56:00.497Z,102368.09
2023-02-27T14:58:30.532Z,102369.38
2023-02-27T15:01:10.023Z,102369.88
2023-02-27T15:03:49.840Z,102370.34
2023-02-27T15:06:45.518Z,102363.91
2023-02-27T15:09:43.046Z,102370.69
2023-02-27T15:12:22.887Z,102369.25
2023-02-27T15:15:03.247Z,102361.16
2023-02-27T15:17:48.606Z,102370.31
2023-02-27T15:20:35.834Z,102363.47
2023-02-27T15:23:29.124Z,102380.25
2023-02-27T15:26:00.800Z,102376.88
2023-02-27T15:28:39.393Z,102380.13
2023-02-27T15:31:20.724Z,102377.84
2023-02-27T15:33:52.148Z,102377.59
2023-02-27T15:37:02.618Z,102378.47
2023-02-27T15:39:35.590Z,102369.63
2023-02-27T15:42:10.692Z,102381.72
2023-02-27T15:44:47.032Z,102382.16
2023-02-27T15:47:31.308Z,102381.03
2023-02-27T15:50:28.358Z,102387.72
2023-02-27T15:53:21.708Z,102388.22
2023-02-27T15:56:02.174Z,102390.19
2023-02-27T15:58:43.105Z,102390.88
2023-02-27T16:01:23.008Z,102389.91
2023-02-27T16:03:58.065Z,102396.28
2023-02-27T16:06:40.731Z,102397.75
2023-02-27T16:09:38.428Z,102401.09
2023-02-27T16:12:36.912Z,102398.28
2023-02-27T16:15:32.707Z,102396.94
2023-02-27T16:18:07.916Z,102404.38
2023-02-27T16:20:54.883Z,102400.41
2023-02-27T16:23:32.049Z,102402.19
2023-02-27T16:26:33.008Z,102403.47
2023-02-27T16:29:22.453Z,102408.78
2023-02-27T16:31:57.032Z,102404.00
2023-02-27T16:34:47.804Z,102404.06
2023-02-27T16:37:36.952Z,102409.84
2023-02-27T16:40:22.616Z,102414.31
2023-02-27T16:42:53.800Z,102412.72
2023-02-27T16:45:31.191Z,102413.34
2023-02-27T16:48:02.150Z,102415.25
2023-02-27T16:50:50.541Z,102414.25
2023-02-27T16:53:20.841Z,102415.78
2023-02-27T16:55:49.661Z,102417.50
2023-02-27T16:58:18.925Z,102422.78
2023-02-27T17:00:49.153Z,102418.25
2023-02-27T17:03:17.340Z,102422.91
2023-02-27T17:05:45.730Z,102421.66
2023-02-27T17:08:14.202Z,102428.66
2023-02-27T17:10:42.703Z,102430.75
2023-02-27T17:13:11.164Z,102423.44
2023-02-27T17:15:39.578Z,102422.00
2023-02-27T17:18:09.423Z,102416.97
2023-02-27T17:20:39.816Z,102420.38
2023-02-27T17:23:14.340Z,102423.31
2023-02-27T17:25:45.585Z,102429.44
2023-02-27T17:28:15.723Z,102426.53
2023-02-27T17:30:44.323Z,102431.00
2023-02-27T17:33:12.639Z,102425.78
2023-02-27T17:35:41.382Z,102433.78
2023-02-27T17:38:09.880Z,102435.72
2023-02-27T17:40:39.443Z,102431.72
2023-02-27T17:43:06.994Z,102434.06
2023-02-27T17:45:35.542Z,102438.06
2023-02-27T17:48:04.046Z,102441.25
2023-02-27T17:50:32.485Z,102441.03
2023-02-27T17:53:00.973Z,102440.22
2023-02-27T17:55:29.541Z,102438.16
2023-02-27T17:57:58.074Z,102428.91
2023-02-27T18:00:26.651Z,102442.59
2023-02-27T18:02:55.004Z,102437.78
2023-02-27T18:05:24.275Z,102438.81
2023-02-27T18:07:51.355Z,102434.00
2023-02-27T18:10:20.447Z,102440.50
2023-02-27T18:12:48.702Z,102442.41
2023-02-27T18:15:18.237Z,102439.66
2023-02-27T18:17:45.925Z,102443.47
2023-02-27T18:20:14.468Z,102439.28
2023-02-27T18:22:42.937Z,102443.03
2023-02-27T18:25:11.535Z,102444.53
2023-02-27T18:27:39.962Z,102442.84
2023-02-27T18:30:10.302Z,102439.72
2023-02-27T18:32:38.563Z,102444.75
2023-02-27T18:35:07.520Z,102446.00
2023-02-27T18:37:35.623Z,102451.91
2023-02-27T18:40:06.087Z,102451.47
2023-02-27T18:42:36.153Z,102455.69
2023-02-27T18:45:06.977Z,102457.34
2023-02-27T18:47:36.804Z,102456.09
2023-02-27T18:50:07.248Z,102460.28
2023-02-27T18:52:37.686Z,102458.19
2023-02-27T18:55:08.269Z,102458.41
2023-02-27T18:57:37.751Z,102454.66
2023-02-27T19:00:09.524Z,102455.06
2023-02-27T19:02:41.745Z,102461.13
2023-02-27T19:05:14.619Z,102456.94
2023-02-27T19:07:42.545Z,102461.75
2023-02-27T19:10:13.023Z,102467.66
2023-02-27T19:12:43.295Z,102463.03
2023-02-27T19:15:13.135Z,102467.03
2023-02-27T19:17:43.127Z,102465.13
2023-02-27T19:20:16.570Z,102467.63
2023-02-27T19:22:45.954Z,102467.84
2023-02-27T19:25:16.121Z,102478.53
2023-02-27T19:27:46.911Z,102464.06
2023-02-27T19:30:15.528Z,102463.44
2023-02-27T19:32:42.975Z,102464.25
2023-02-27T19:35:14.282Z,102467.63
2023-02-27T19:37:42.931Z,102470.97
2023-02-27T19:40:12.635Z,102478.97
2023-02-27T19:42:44.691Z,102476.88
2023-02-27T19:45:14.183Z,102481.50
2023-02-27T19:47:45.102Z,102473.31
2023-02-27T19:50:16.305Z,102480.84
2023-02-27T19:52:45.681Z,102479.59
2023-02-27T19:55:16.091Z,102479.34
2023-02-27T19:57:45.943Z,102473.06
2023-02-27T20:00:17.589Z,102470.31
2023-02-27T20:02:46.723Z,102473.25
2023-02-27T20:05:16.870Z,102480.97
2023-02-27T20:07:48.415Z,102475.31
2023-02-27T20:10:18.537Z,102483.28
2023-02-27T20:12:48.552Z,102472.13
2023-02-27T20:15:18.373Z,102471.69
2023-02-27T20:17:48.347Z,102469.19
2023-02-27T20:20:18.953Z,102472.75
2023-02-27T20:22:49.304Z,102467.50
2023-02-27T20:25:19.555Z,102473.16
2023-02-27T20:27:49.674Z,102478.19
2023-02-27T20:30:19.866Z,102473.75
2023-02-27T20:32:50.136Z,102480.25
2023-02-27T20:35:20.318Z,102475.38
2023-02-27T20:37:50.355Z,102475.38
2023-02-27T20:40:20.699Z,102477.28
2023-02-27T20:42:50.682Z,102484.63
2023-02-27T20:45:20.696Z,102481.06
2023-02-27T20:47:51.484Z,102477.50
2023-02-27T20:50:21.762Z,102479.34
2023-02-27T20:52:55.187Z,102481.25
2023-02-27T20:55:25.020Z,102476.00
2023-02-27T20:57:55.077Z,102479.13
2023-02-27T21:00:26.918Z,102479.34
2023-02-27T21:02:56.261Z,102482.88
2023-02-27T21:05:26.317Z,102483.31
2023-02-27T21:07:56.485Z,102486.03
2023-02-27T21:10:26.596Z,102485.59
2023-02-27T21:12:56.704Z,102486.00
2023-02-27T21:15:26.792Z,102491.63
2023-02-27T21:17:56.954Z,102490.16
2023-02-27T21:20:27.009Z,102483.03
2023-02-27T21:22:55.911Z,102488.47
2023-02-27T21:25:26.249Z,102484.09
2023-02-27T21:28:02.427Z,102484.28
2023-02-27T21:30:33.326Z,102482.59
2023-02-27T21:33:05.067Z,102482.81
2023-02-27T21:35:35.206Z,102480.91
2023-02-27T21:38:05.429Z,102490.13
2023-02-27T21:40:35.562Z,102485.53
2023-02-27T21:43:04.190Z,102491.81
2023-02-27T21:45:32.396Z,102487.78
2023-02-27T21:48:00.867Z,102484.25
2023-02-27T21:50:29.728Z,102487.78
2023-02-27T21:52:57.634Z,102494.06
2023-02-27T21:55:26.069Z,102489.28
2023-02-27T21:57:54.768Z,102491.16
2023-02-27T22:00:26.560Z,102487.41
2023-02-27T22:02:56.575Z,102487.19
2023-02-27T22:05:27.085Z,102489.72
2023-02-27T22:07:57.285Z,102495.81
2023-02-27T22:10:27.370Z,102485.56
2023-02-27T22:12:57.661Z,102497.91
2023-02-27T22:15:27.756Z,102494.56
2023-02-27T22:17:57.735Z,102488.91
2023-02-27T22:20:27.897Z,102499.63
2023-02-27T22:22:58.901Z,102499.44
2023-02-27T22:25:28.927Z,102501.94
2023-02-27T22:27:59.898Z,102493.75
2023-02-27T22:30:30.638Z,102498.81
2023-02-27T22:33:00.703Z,102498.81
2023-02-27T22:35:33.809Z,102500.47
2023-02-27T22:38:03.903Z,102494.19
2023-02-27T22:40:36.190Z,102490.41
2023-02-27T22:43:06.564Z,102489.41
2023-02-27T22:45:34.691Z,102491.28
2023-02-27T22:48:03.084Z,102501.31
2023-02-27T22:50:31.487Z,102505.09
2023-02-27T22:52:59.974Z,102511.38
2023-02-27T22:55:28.327Z,102509.72
2023-02-27T22:57:58.258Z,102508.66
2023-02-27T23:00:28.198Z,102508.47
2023-02-27T23:02:56.612Z,102517.47
2023-02-27T23:05:25.012Z,102517.28
2023-02-27T23:07:53.457Z,102515.00
2023-02-27T23:10:21.893Z,102506.22
2023-02-27T23:12:50.214Z,102514.78
2023-02-27T23:15:18.743Z,102519.66
2023-02-27T23:17:57.920Z,102519.25
2023-02-27T23:20:28.338Z,102517.81
2023-02-27T23:22:58.363Z,102521.16
2023-02-27T23:25:28.375Z,102520.97
2023-02-27T23:27:58.570Z,102528.72
2023-02-27T23:30:30.420Z,102531.47
2023-02-27T23:33:01.533Z,102529.00
2023-02-27T23:35:31.608Z,102527.75
2023-02-27T23:38:01.769Z,102521.66
2023-02-27T23:40:31.815Z,102537.41
2023-02-27T23:43:20.508Z,102531.56
2023-02-27T23:45:50.575Z,102535.13
2023-02-27T23:48:21.975Z,102536.78
2023-02-27T23:50:52.061Z,102535.56
2023-02-27T23:53:22.124Z,102539.75
2023-02-27T23:55:52.151Z,102543.31
2023-02-27T23:58:22.402Z,102540.41
